createdAt,value
2018-08-12T00:00:44.240Z,77.91
2018-08-12T00:03:12.524Z,77.58
2018-08-12T00:05:40.809Z,77.75
2018-08-12T00:08:09.080Z,76.92
2018-08-12T00:10:37.389Z,77.04
2018-08-12T00:13:05.653Z,77.27
2018-08-12T00:15:33.952Z,78.23
2018-08-12T00:18:02.254Z,77.78
2018-08-12T00:20:30.528Z,77.40
2018-08-12T00:22:58.841Z,77.35
2018-08-12T00:25:27.113Z,77.33
2018-08-12T00:27:55.398Z,77.02
2018-08-12T00:30:23.689Z,76.78
2018-08-12T00:32:51.969Z,77.59
2018-08-12T00:35:20.385Z,77.37
2018-08-12T00:37:48.733Z,77.00
2018-08-12T00:40:17.665Z,76.58
2018-08-12T00:42:46.597Z,77.19
2018-08-12T00:45:16.884Z,76.90
2018-08-12T00:47:45.589Z,77.85
2018-08-12T00:50:14.666Z,77.60
2018-08-12T00:52:42.989Z,78.30
2018-08-12T00:55:13.233Z,77.96
2018-08-12T00:57:42.284Z,77.87
2018-08-12T01:00:15.774Z,77.45
2018-08-12T01:02:44.124Z,77.11
2018-08-12T01:05:14.384Z,78.29
2018-08-12T01:07:44.215Z,78.87
2018-08-12T01:10:13.902Z,78.88
2018-08-12T01:12:43.261Z,79.11
2018-08-12T01:15:13.765Z,78.95
2018-08-12T01:17:42.330Z,78.95
2018-08-12T01:20:14.489Z,79.18
2018-08-12T01:29:48.525Z,78.44
2018-08-12T01:32:16.782Z,78.26
2018-08-12T01:34:45.079Z,78.52
2018-08-12T01:37:13.369Z,78.64
2018-08-12T01:39:42.689Z,78.69
2018-08-12T01:42:10.930Z,79.02
2018-08-12T01:44:39.213Z,78.74
2018-08-12T01:47:07.565Z,79.33
2018-08-12T01:49:35.868Z,79.29
2018-08-12T01:52:04.144Z,79.32
2018-08-12T01:54:32.473Z,79.69
2018-08-12T01:57:00.728Z,79.32
2018-08-12T01:59:30.000Z,78.82
2018-08-12T02:01:58.289Z,78.55
2018-08-12T02:04:26.549Z,78.87
2018-08-12T02:06:54.853Z,78.87
2018-08-12T02:09:23.221Z,80.42
2018-08-12T02:11:51.528Z,80.29
2018-08-12T02:14:19.808Z,80.50
2018-08-12T02:16:48.176Z,80.40
2018-08-12T02:19:16.428Z,80.34
2018-08-12T02:21:44.725Z,79.97
2018-08-12T02:24:13.002Z,80.30
2018-08-12T02:26:41.388Z,80.29
2018-08-12T02:29:09.649Z,80.27
2018-08-12T02:31:37.929Z,81.01
2018-08-12T02:34:06.185Z,80.79
2018-08-12T02:36:34.501Z,81.69
2018-08-12T02:39:02.822Z,81.48
2018-08-12T02:41:31.149Z,80.59
2018-08-12T02:43:59.441Z,80.77
2018-08-12T02:46:27.805Z,81.96
2018-08-12T02:48:56.123Z,81.42
2018-08-12T02:51:24.401Z,81.96
2018-08-12T02:53:52.696Z,81.11
2018-08-12T02:56:20.989Z,81.50
2018-08-12T02:58:49.311Z,82.24
2018-08-12T03:01:17.570Z,81.75
2018-08-12T03:03:46.937Z,81.92
2018-08-12T03:06:15.226Z,81.58
2018-08-12T03:08:43.569Z,82.11
2018-08-12T03:11:11.841Z,82.18
2018-08-12T03:13:40.161Z,83.25
2018-08-12T03:16:08.446Z,82.82
2018-08-12T03:18:36.749Z,82.85
2018-08-12T03:21:05.053Z,82.13
2018-08-12T03:23:33.399Z,82.19
2018-08-12T03:26:01.745Z,82.57
2018-08-12T03:28:30.033Z,82.43
2018-08-12T03:30:58.373Z,82.12
2018-08-12T03:33:27.724Z,82.86
2018-08-12T03:35:57.061Z,82.71
2018-08-12T03:38:25.384Z,81.72
2018-08-12T03:40:53.701Z,81.74
2018-08-12T03:43:21.965Z,82.23
2018-08-12T03:45:50.301Z,82.37
2018-08-12T03:48:20.390Z,82.18
2018-08-12T03:50:48.733Z,82.11
2018-08-12T03:53:16.984Z,82.14
2018-08-12T03:55:45.273Z,82.21
2018-08-12T03:58:13.607Z,82.28
2018-08-12T04:00:42.929Z,81.34
2018-08-12T04:03:11.305Z,82.44
2018-08-12T04:05:39.605Z,82.76
2018-08-12T04:08:07.901Z,83.04
2018-08-12T04:10:37.297Z,82.31
2018-08-12T04:13:05.640Z,82.82
2018-08-12T04:15:33.952Z,82.17
2018-08-12T04:18:02.223Z,81.79
2018-08-12T04:20:30.504Z,81.95
2018-08-12T04:22:58.872Z,81.99
2018-08-12T04:25:28.164Z,81.62
2018-08-12T04:27:56.445Z,81.48
2018-08-12T04:30:24.789Z,81.16
2018-08-12T04:32:53.073Z,80.97
2018-08-12T04:35:21.392Z,80.55
2018-08-12T04:37:49.738Z,80.07
2018-08-12T04:40:18.029Z,81.00
2018-08-12T04:42:46.349Z,79.35
2018-08-12T04:45:14.618Z,79.56
2018-08-12T04:47:42.960Z,78.21
2018-08-12T04:50:11.302Z,77.82
2018-08-12T04:52:39.593Z,78.60
2018-08-12T04:55:08.537Z,79.18
2018-08-12T04:57:38.058Z,79.49
2018-08-12T05:00:07.031Z,78.03
2018-08-12T05:02:36.320Z,77.69
2018-08-12T05:05:04.961Z,77.64
2018-08-12T05:07:33.273Z,78.06
2018-08-12T05:10:01.607Z,76.43
2018-08-12T05:12:31.973Z,75.54
2018-08-12T05:15:00.240Z,75.45
2018-08-12T05:17:28.540Z,75.54
2018-08-12T05:19:56.808Z,75.61
2018-08-12T05:22:25.191Z,75.70
2018-08-12T05:24:53.545Z,74.38
2018-08-12T05:27:21.912Z,74.32
2018-08-12T05:29:50.173Z,74.79
2018-08-12T05:32:18.445Z,75.47
2018-08-12T05:34:47.757Z,75.29
2018-08-12T05:40:08.125Z,74.70
2018-08-12T05:42:36.513Z,75.36
2018-08-12T05:45:06.549Z,74.66
2018-08-12T05:47:34.793Z,74.31
2018-08-12T05:50:03.149Z,74.52
2018-08-12T05:52:31.393Z,73.62
2018-08-12T05:54:59.661Z,74.17
2018-08-12T05:57:29.045Z,74.97
2018-08-12T05:59:57.319Z,74.61
2018-08-12T06:02:26.593Z,73.60
2018-08-12T06:04:55.128Z,73.81
2018-08-12T06:07:23.385Z,73.19
2018-08-12T06:09:51.720Z,71.36
2018-08-12T06:12:19.965Z,71.51
2018-08-12T06:14:48.260Z,71.32
2018-08-12T06:17:16.542Z,70.58
2018-08-12T06:19:44.837Z,70.45
2018-08-12T06:22:13.086Z,70.86
2018-08-12T06:24:41.353Z,70.45
2018-08-12T06:27:09.597Z,70.89
2018-08-12T06:29:37.977Z,70.24
2018-08-12T06:32:06.288Z,70.70
2018-08-12T06:34:34.526Z,70.63
2018-08-12T06:37:02.844Z,69.96
2018-08-12T06:39:31.136Z,67.77
2018-08-12T06:42:01.421Z,66.65
2018-08-12T06:44:31.705Z,67.35
2018-08-12T06:47:01.041Z,66.89
2018-08-12T06:49:29.385Z,67.79
2018-08-12T06:51:57.737Z,67.52
2018-08-12T06:54:27.312Z,66.26
2018-08-12T06:56:55.605Z,67.62
2018-08-12T06:59:23.877Z,66.89
2018-08-12T07:01:53.365Z,66.90
2018-08-12T07:04:21.672Z,65.86
2018-08-12T07:06:49.973Z,64.54
2018-08-12T07:09:18.260Z,63.84
2018-08-12T07:11:46.566Z,61.99
2018-08-12T07:14:14.877Z,59.92
2018-08-12T07:16:44.257Z,59.67
2018-08-12T07:19:12.513Z,59.01
2018-08-12T07:21:40.789Z,59.91
2018-08-12T07:24:09.076Z,59.75
2018-08-12T07:26:37.341Z,59.88
2018-08-12T07:29:05.665Z,58.62
2018-08-12T07:31:35.023Z,57.58
2018-08-12T07:34:03.429Z,56.39
2018-08-12T07:36:31.753Z,57.06
2018-08-12T07:39:00.094Z,55.59
2018-08-12T07:41:28.383Z,54.06
2018-08-12T07:43:56.729Z,55.94
2018-08-12T07:46:24.993Z,55.80
2018-08-12T07:48:53.445Z,56.00
2018-08-12T07:51:21.665Z,56.18
2018-08-12T07:53:49.988Z,56.26
2018-08-12T07:56:18.269Z,55.69
2018-08-12T07:58:46.584Z,53.43
2018-08-12T08:01:15.881Z,53.89
2018-08-12T08:03:44.180Z,53.16
2018-08-12T08:06:12.454Z,52.55
2018-08-12T08:08:40.783Z,52.82
2018-08-12T08:11:10.114Z,50.48
2018-08-12T08:13:38.436Z,50.02
2018-08-12T08:16:07.261Z,50.43
2018-08-12T08:18:35.605Z,51.71
2018-08-12T08:21:03.926Z,52.33
2018-08-12T08:23:32.216Z,51.97
2018-08-12T08:26:00.543Z,52.44
2018-08-12T08:28:28.873Z,51.23
2018-08-12T08:30:57.258Z,52.00
2018-08-12T08:33:25.569Z,52.31
2018-08-12T08:35:53.920Z,52.52
2018-08-12T08:38:22.240Z,51.77
2018-08-12T08:40:50.541Z,50.76
2018-08-12T08:43:20.884Z,50.15
2018-08-12T08:45:50.205Z,49.77
2018-08-12T08:48:18.509Z,48.46
2018-08-12T08:50:46.857Z,49.08
2018-08-12T08:53:15.105Z,48.87
2018-08-12T08:55:43.458Z,50.03
2018-08-12T08:58:11.672Z,50.23
2018-08-12T09:00:39.973Z,50.13
2018-08-12T09:03:08.266Z,49.78
2018-08-12T09:05:37.637Z,50.27
2018-08-12T09:08:06.377Z,48.72
2018-08-12T09:10:34.521Z,48.78
2018-08-12T09:13:02.841Z,48.85
2018-08-12T09:15:32.237Z,48.43
2018-08-12T09:18:00.505Z,48.53
2018-08-12T09:20:30.899Z,48.38
2018-08-12T09:22:59.209Z,47.01
2018-08-12T09:25:27.518Z,45.23
2018-08-12T09:27:57.853Z,44.69
2018-08-12T09:30:26.153Z,44.08
2018-08-12T09:32:54.467Z,42.19
2018-08-12T09:35:27.830Z,41.32
2018-08-12T09:37:56.185Z,41.47
2018-08-12T09:40:24.447Z,42.29
2018-08-12T09:42:52.805Z,41.78
2018-08-12T09:45:21.740Z,39.46
2018-08-12T09:47:51.069Z,37.25
2018-08-12T09:50:20.848Z,37.35
2018-08-12T09:52:50.286Z,38.30
2018-08-12T09:55:19.150Z,39.02
2018-08-12T09:57:49.469Z,40.64
2018-08-12T10:00:23.659Z,40.26
2018-08-12T10:02:53.741Z,39.12
2018-08-12T10:05:22.025Z,37.84
2018-08-12T10:07:51.414Z,38.17
2018-08-12T10:10:19.705Z,37.15
2018-08-12T10:12:48.117Z,37.01
2018-08-12T10:15:18.006Z,37.04
2018-08-12T10:17:51.329Z,36.10
2018-08-12T10:20:19.611Z,35.25
2018-08-12T10:22:48.508Z,33.91
2018-08-12T10:25:17.852Z,34.51
2018-08-12T10:27:46.517Z,31.95
2018-08-12T10:30:15.740Z,30.66
2018-08-12T10:32:44.093Z,29.22
2018-08-12T10:35:13.722Z,29.78
2018-08-12T10:37:42.600Z,29.50
2018-08-12T10:40:14.833Z,30.03
2018-08-12T10:42:43.445Z,31.00
2018-08-12T10:45:12.781Z,31.02
2018-08-12T10:47:41.537Z,32.68
2018-08-12T10:50:12.533Z,32.54
2018-08-12T10:52:43.249Z,32.76
2018-08-12T10:55:12.571Z,30.50
2018-08-12T10:57:40.877Z,32.69
2018-08-12T11:00:15.348Z,34.50
2018-08-12T11:02:44.240Z,33.88
2018-08-12T11:05:13.353Z,34.07
2018-08-12T11:07:44.381Z,33.96
2018-08-12T11:10:13.180Z,33.75
2018-08-12T11:12:42.833Z,34.97
2018-08-12T11:15:11.070Z,35.24
2018-08-12T11:17:40.210Z,34.12
2018-08-12T11:20:10.050Z,32.91
2018-08-12T11:22:38.390Z,32.59
2018-08-12T11:25:09.467Z,31.47
2018-08-12T11:27:37.826Z,32.74
2018-08-12T11:30:10.153Z,32.07
2018-08-12T11:32:38.521Z,33.11
2018-08-12T11:35:08.145Z,33.94
2018-08-12T11:37:36.881Z,34.19
2018-08-12T11:40:07.497Z,34.66
2018-08-12T11:42:35.923Z,34.65
2018-08-12T11:45:05.861Z,35.49
2018-08-12T11:47:34.276Z,34.79
2018-08-12T11:50:02.545Z,34.90
2018-08-12T11:52:30.801Z,36.10
2018-08-12T11:55:00.086Z,37.42
2018-08-12T11:57:28.400Z,36.93
2018-08-12T11:59:56.774Z,37.62
2018-08-12T12:02:25.065Z,40.93
2018-08-12T12:04:54.441Z,40.73
2018-08-12T12:07:27.245Z,42.32
2018-08-12T12:09:55.488Z,42.68
2018-08-12T12:12:23.781Z,42.85
2018-08-12T12:14:52.045Z,44.00
2018-08-12T12:17:20.361Z,44.77
2018-08-12T12:19:48.617Z,45.60
2018-08-12T12:22:16.913Z,45.10
2018-08-12T12:24:45.250Z,46.17
2018-08-12T12:27:13.629Z,47.45
2018-08-12T12:29:41.927Z,46.44
2018-08-12T12:32:11.197Z,46.41
2018-08-12T12:34:39.582Z,45.99
2018-08-12T12:37:07.839Z,45.75
2018-08-12T12:39:36.165Z,46.75
2018-08-12T12:42:04.474Z,45.97
2018-08-12T12:44:32.935Z,46.28
2018-08-12T12:47:01.209Z,46.28
2018-08-12T12:49:29.561Z,48.03
2018-08-12T12:51:59.870Z,47.51
2018-08-12T12:54:28.170Z,49.45
2018-08-12T12:56:56.468Z,50.56
2018-08-12T12:59:25.837Z,50.57
2018-08-12T13:01:54.106Z,51.75
2018-08-12T13:04:22.553Z,51.09
2018-08-12T13:06:50.816Z,50.47
2018-08-12T13:09:19.129Z,49.47
2018-08-12T13:11:47.404Z,47.82
2018-08-12T13:14:16.725Z,47.30
2018-08-12T13:16:44.984Z,48.13
2018-08-12T13:19:13.351Z,47.60
2018-08-12T13:21:41.623Z,46.08
2018-08-12T13:24:10.876Z,46.08
2018-08-12T13:26:39.201Z,46.69
2018-08-12T13:29:07.617Z,47.53
2018-08-12T13:31:35.929Z,47.14
2018-08-12T13:34:04.230Z,48.86
2018-08-12T13:36:33.574Z,48.75
2018-08-12T13:39:01.861Z,47.83
2018-08-12T13:41:30.141Z,47.15
2018-08-12T13:43:58.437Z,46.32
2018-08-12T13:46:26.960Z,46.05
2018-08-12T13:48:55.265Z,47.06
2018-08-12T13:51:23.569Z,47.67
2018-08-12T13:53:51.865Z,47.85
2018-08-12T13:56:20.145Z,47.40
2018-08-12T13:58:48.465Z,48.43
2018-08-12T14:01:16.756Z,47.31
2018-08-12T14:03:45.027Z,48.79
2018-08-12T14:06:13.344Z,49.48
2018-08-12T14:08:41.653Z,51.97
2018-08-12T14:11:10.042Z,51.90
2018-08-12T14:13:38.393Z,53.95
2018-08-12T14:16:06.865Z,55.25
2018-08-12T14:18:35.141Z,54.54
2018-08-12T14:21:03.480Z,55.52
2018-08-12T14:23:31.777Z,57.39
2018-08-12T14:26:00.122Z,57.95
2018-08-12T14:28:28.505Z,58.46
2018-08-12T14:30:56.797Z,60.48
2018-08-12T14:33:26.112Z,61.01
2018-08-12T14:35:54.416Z,60.47
2018-08-12T14:38:22.804Z,60.38
2018-08-12T14:40:52.121Z,59.71
2018-08-12T14:43:21.503Z,58.36
2018-08-12T14:45:49.805Z,58.21
2018-08-12T14:48:19.338Z,57.19
2018-08-12T14:50:47.677Z,57.13
2018-08-12T14:53:15.990Z,56.14
2018-08-12T14:55:44.300Z,55.71
2018-08-12T14:58:12.605Z,54.74
2018-08-12T15:00:40.881Z,53.74
2018-08-12T15:03:09.196Z,54.27
2018-08-12T15:05:37.553Z,53.82
2018-08-12T15:08:05.857Z,54.00
2018-08-12T15:10:34.132Z,53.49
2018-08-12T15:13:02.477Z,53.41
2018-08-12T15:15:30.774Z,52.73
2018-08-12T15:18:04.212Z,52.05
2018-08-12T15:20:34.497Z,51.69
2018-08-12T15:23:02.813Z,50.59
2018-08-12T15:25:31.141Z,49.99
2018-08-12T15:27:59.449Z,49.67
2018-08-12T15:30:27.836Z,49.65
2018-08-12T15:32:56.299Z,49.30
2018-08-12T15:35:24.583Z,49.75
2018-08-12T15:37:53.873Z,50.30
2018-08-12T15:40:22.172Z,51.40
2018-08-12T15:42:51.497Z,50.61
2018-08-12T15:45:19.793Z,52.03
2018-08-12T15:47:48.358Z,51.30
2018-08-12T15:50:16.720Z,50.98
2018-08-12T15:52:46.213Z,50.48
2018-08-12T15:55:14.860Z,50.49
2018-08-12T15:57:43.216Z,50.23
2018-08-12T16:00:19.916Z,50.20
2018-08-12T16:02:48.569Z,50.06
2018-08-12T16:05:17.913Z,48.99
2018-08-12T16:07:48.193Z,48.83
2018-08-12T16:10:18.686Z,48.61
2018-08-12T16:12:49.154Z,48.81
2018-08-12T16:15:18.524Z,48.93
2018-08-12T16:18:49.962Z,49.57
2018-08-12T16:21:18.249Z,49.64
2018-08-12T16:23:46.609Z,49.86
2018-08-12T16:26:14.891Z,49.08
2018-08-12T16:28:43.216Z,49.37
2018-08-12T16:32:38.030Z,48.42
2018-08-12T16:35:07.212Z,48.92
2018-08-12T16:37:35.568Z,48.69
2018-08-12T16:40:04.162Z,49.17
2018-08-12T16:42:33.572Z,49.76
2018-08-12T16:45:01.930Z,49.82
2018-08-12T16:47:30.357Z,49.26
2018-08-12T16:49:59.610Z,49.18
2018-08-12T16:52:28.953Z,48.91
2018-08-12T16:54:57.206Z,48.62
2018-08-12T16:57:25.529Z,49.02
2018-08-12T16:59:53.788Z,49.13
2018-08-12T17:02:22.041Z,48.70
2018-08-12T17:04:50.332Z,48.79
2018-08-12T17:07:18.585Z,48.81
2018-08-12T17:09:47.908Z,48.48
2018-08-12T17:12:16.165Z,48.54
2018-08-12T17:14:44.513Z,48.51
2018-08-12T17:17:13.924Z,48.74
2018-08-12T17:19:42.233Z,48.36
2018-08-12T17:22:10.586Z,48.86
2018-08-12T17:24:38.865Z,49.27
2018-08-12T17:27:07.133Z,49.13
2018-08-12T17:29:35.432Z,49.25
2018-08-12T17:32:03.926Z,49.65
2018-08-12T17:34:33.217Z,49.52
2018-08-12T17:37:02.757Z,50.20
2018-08-12T17:39:31.100Z,50.01
2018-08-12T17:41:59.355Z,49.91
2018-08-12T17:44:27.653Z,49.78
2018-08-12T17:46:56.034Z,49.67
2018-08-12T17:49:24.477Z,49.92
2018-08-12T17:51:52.742Z,50.08
2018-08-12T17:54:22.168Z,50.13
2018-08-12T17:56:51.561Z,50.65
2018-08-12T17:59:19.841Z,50.67
2018-08-12T18:01:48.156Z,50.39
2018-08-12T18:04:16.442Z,50.24
2018-08-12T18:06:45.780Z,50.89
2018-08-12T18:09:14.072Z,50.85
2018-08-12T18:11:43.494Z,51.24
2018-08-12T18:14:11.773Z,50.80
2018-08-12T18:16:40.085Z,51.04
2018-08-12T18:19:08.369Z,51.14
2018-08-12T18:21:36.642Z,50.84
2018-08-12T18:24:04.902Z,51.15
2018-08-12T18:26:33.208Z,51.10
2018-08-12T18:29:01.519Z,51.84
2018-08-12T18:31:29.794Z,51.88
2018-08-12T18:33:58.057Z,52.35
2018-08-12T18:36:26.361Z,52.89
2018-08-12T18:38:54.649Z,53.23
2018-08-12T18:41:22.917Z,54.00
2018-08-12T18:43:51.161Z,53.79
2018-08-12T18:46:19.469Z,53.92
2018-08-12T18:48:47.742Z,54.73
2018-08-12T18:51:18.129Z,55.00
2018-08-12T18:53:46.426Z,55.44
2018-08-12T18:56:14.797Z,56.19
2018-08-12T18:58:43.154Z,57.01
2018-08-12T19:01:11.516Z,57.46
2018-08-12T19:03:40.830Z,58.63
2018-08-12T19:06:09.080Z,58.49
2018-08-12T19:08:37.409Z,59.63
2018-08-12T19:11:05.669Z,61.21
2018-08-12T19:13:34.977Z,61.66
2018-08-12T19:16:03.272Z,62.22
2018-08-12T19:18:31.685Z,61.98
2018-08-12T19:20:59.965Z,62.77
2018-08-12T19:23:28.240Z,63.33
2018-08-12T19:25:56.518Z,63.26
2018-08-12T19:28:24.852Z,65.16
2018-08-12T19:30:53.112Z,65.73
2018-08-12T19:33:22.938Z,65.79
2018-08-12T19:35:52.372Z,66.01
2018-08-12T19:38:20.741Z,66.51
2018-08-12T19:40:48.997Z,67.45
2018-08-12T19:43:18.356Z,67.81
2018-08-12T19:45:47.626Z,67.44
2018-08-12T19:48:15.934Z,67.11
2018-08-12T19:50:45.253Z,66.67
2018-08-12T19:53:13.505Z,67.37
2018-08-12T19:55:41.876Z,67.75
2018-08-12T19:58:10.166Z,67.68
2018-08-12T20:00:38.543Z,67.66
2018-08-12T20:03:06.893Z,67.05
2018-08-12T20:05:35.178Z,67.19
2018-08-12T20:08:04.093Z,66.97
2018-08-12T20:10:32.717Z,67.54
2018-08-12T20:13:01.010Z,66.93
2018-08-12T20:15:29.318Z,67.03
2018-08-12T20:17:58.798Z,66.53
2018-08-12T20:20:27.113Z,66.16
2018-08-12T20:22:55.435Z,65.61
2018-08-12T20:25:23.758Z,66.08
2018-08-12T20:27:52.069Z,65.17
2018-08-12T20:30:20.317Z,65.26
2018-08-12T20:32:48.717Z,64.53
2018-08-12T20:35:17.076Z,63.87
2018-08-12T20:37:45.394Z,63.82
2018-08-12T20:40:13.696Z,63.62
2018-08-12T20:42:41.989Z,62.92
2018-08-12T20:45:10.289Z,63.62
2018-08-12T20:47:38.613Z,63.26
2018-08-12T20:50:07.678Z,63.08
2018-08-12T20:52:36.101Z,62.88
2018-08-12T20:55:04.712Z,63.57
2018-08-12T20:57:33.973Z,63.35
2018-08-12T21:00:02.287Z,63.46
2018-08-12T21:02:30.568Z,63.06
2018-08-12T21:04:58.833Z,62.99
2018-08-12T21:07:27.124Z,63.04
2018-08-12T21:09:55.423Z,63.41
2018-08-12T21:12:23.705Z,62.96
2018-08-12T21:14:51.970Z,62.55
2018-08-12T21:17:20.269Z,62.87
2018-08-12T21:19:48.538Z,63.08
2018-08-12T21:22:16.863Z,63.07
2018-08-12T21:24:45.253Z,62.51
2018-08-12T21:27:13.736Z,62.72
2018-08-12T21:29:42.125Z,63.04
2018-08-12T21:32:10.381Z,62.55
2018-08-12T21:34:38.673Z,63.00
2018-08-12T21:37:06.952Z,62.09
2018-08-12T21:39:35.329Z,62.32
2018-08-12T21:42:03.597Z,63.35
2018-08-12T21:44:31.898Z,63.09
2018-08-12T21:47:00.185Z,62.81
2018-08-12T21:49:28.488Z,64.06
2018-08-12T21:51:56.777Z,64.26
2018-08-12T21:54:25.071Z,64.53
2018-08-12T21:56:53.335Z,64.68
2018-08-12T21:59:21.630Z,63.86
2018-08-12T22:01:49.904Z,64.93
2018-08-12T22:04:18.185Z,65.27
2018-08-12T22:06:46.437Z,65.42
2018-08-12T22:09:15.753Z,65.93
2018-08-12T22:11:44.022Z,65.52
2018-08-12T22:14:12.319Z,66.31
2018-08-12T22:16:40.861Z,66.12
2018-08-12T22:19:09.172Z,65.99
2018-08-12T22:21:37.493Z,66.42
2018-08-12T22:24:05.804Z,67.60
2018-08-12T22:26:34.105Z,67.01
2018-08-12T22:29:02.390Z,67.93
2018-08-12T22:31:30.665Z,67.20
2018-08-12T22:33:58.930Z,67.51
2018-08-12T22:36:27.244Z,68.38
2018-08-12T22:38:55.533Z,69.59
2018-08-12T22:41:24.909Z,70.65
2018-08-12T22:43:53.180Z,70.97
2018-08-12T22:46:22.205Z,71.04
2018-08-12T22:48:50.468Z,71.98
2018-08-12T22:51:18.777Z,72.70
2018-08-12T22:53:47.096Z,73.75
2018-08-12T22:56:15.371Z,74.10
2018-08-12T22:58:43.683Z,74.50
2018-08-12T23:01:12.031Z,74.79
2018-08-12T23:03:40.345Z,74.96
2018-08-12T23:06:08.697Z,76.15
2018-08-12T23:08:36.960Z,76.56
2018-08-12T23:11:05.265Z,75.88
2018-08-12T23:13:34.618Z,76.73
2018-08-12T23:16:15.308Z,77.01
2018-08-12T23:18:50.437Z,77.73
2018-08-12T23:21:19.437Z,77.38
2018-08-12T23:23:49.837Z,75.42
2018-08-12T23:26:19.371Z,76.01
2018-08-12T23:28:47.768Z,76.58
2018-08-12T23:31:16.041Z,76.28
2018-08-12T23:33:44.332Z,75.99
2018-08-12T23:36:13.710Z,75.24
2018-08-12T23:38:42.037Z,75.99
2018-08-12T23:41:12.088Z,76.01
2018-08-12T23:43:40.377Z,77.01
2018-08-12T23:46:09.664Z,77.01
2018-08-12T23:48:38.033Z,76.73
2018-08-12T23:51:06.377Z,77.16
2018-08-12T23:53:34.733Z,77.73
2018-08-12T23:56:03.018Z,77.39
2018-08-12T23:58:31.297Z,77.29
